Time;durP1;ratioP1;P1;durP2;ratioP2;P2;SDS_P1;SDS_P2;PMS_P1;PMS_P2;Temp;Humidity;BMP_temperature;BMP_pressure;BME280_temperature;BME280_humidity;BME280_pressure;Samples;Min_cycle;Max_cycle;Signal;HPM_P1;HPM_P2
2023/09/07 00:00:32;;;;;;;5.60;3.63;;;;;;;20.42;85.01;101990.22;2107626;28;20028;-77
2023/09/07 00:01:33;;;;;;;6.45;3.53;;;;;;;20.44;84.97;101997.00;2098827;28;20056;-77
2023/09/07 00:02:40;;;;;;;4.68;3.55;;;;;;;20.45;85.19;101990.41;2106469;27;20970;-76
2023/09/07 00:03:42;;;;;;;5.80;3.67;;;;;;;20.46;85.23;101991.22;2107675;28;20052;-76
2023/09/07 00:04:45;;;;;;;6.40;3.80;;;;;;;20.46;85.13;101991.22;2098347;28;20780;-76
2023/09/07 00:05:47;;;;;;;8.35;3.60;;;;;;;20.46;85.06;101989.31;2107146;27;20068;-74
2023/09/07 00:06:54;;;;;;;8.75;3.92;;;;;;;20.47;85.07;101987.38;2123516;27;20031;-77
2023/09/07 00:07:56;;;;;;;8.13;4.10;;;;;;;20.43;85.38;101987.19;2123463;27;20031;-78
2023/09/07 00:08:58;;;;;;;7.65;4.28;;;;;;;20.44;85.47;101994.28;2130189;27;20081;-77
2023/09/07 00:10:00;;;;;;;8.60;4.72;;;;;;;20.41;85.92;102003.09;2123605;27;20036;-76
2023/09/07 00:11:11;;;;;;;7.15;5.28;;;;;;;20.35;86.33;101994.19;2123591;27;20012;-77
2023/09/07 00:12:13;;;;;;;9.40;5.20;;;;;;;20.33;86.44;101993.72;2124308;27;20051;-78
2023/09/07 00:13:15;;;;;;;9.23;5.00;;;;;;;20.31;86.46;101995.94;2123246;27;20044;-79
2023/09/07 00:14:16;;;;;;;8.68;5.43;;;;;;;20.31;86.96;102000.59;2123642;27;20083;-79
2023/09/07 00:15:20;;;;;;;7.47;5.50;;;;;;;20.28;87.15;101995.75;2123434;27;20051;-78
2023/09/07 00:16:21;;;;;;;10.30;5.20;;;;;;;20.25;87.51;101993.66;2123650;27;20102;-78
2023/09/07 00:17:22;;;;;;;7.68;5.28;;;;;;;20.25;87.61;101996.38;2106401;28;20063;-78
2023/09/07 00:18:24;;;;;;;8.20;5.55;;;;;;;20.25;87.40;102001.84;2098350;28;20029;-78
2023/09/07 00:19:27;;;;;;;9.35;5.80;;;;;;;20.23;87.84;101996.66;2106707;27;20036;-77
2023/09/07 00:20:28;;;;;;;10.25;6.43;;;;;;;20.21;88.01;102001.66;2106871;28;21310;-78
2023/09/07 00:21:33;;;;;;;9.77;5.57;;;;;;;20.17;88.29;101995.16;2107558;27;20807;-78
2023/09/07 00:22:35;;;;;;;10.68;5.72;;;;;;;20.19;88.43;102003.06;2115007;27;20487;-77
2023/09/07 00:23:37;;;;;;;7.93;5.85;;;;;;;20.19;88.42;101997.59;2114864;27;20048;-78
2023/09/07 00:24:39;;;;;;;8.73;5.75;;;;;;;20.18;88.57;101999.53;2114994;27;20042;-78
2023/09/07 00:25:40;;;;;;;9.32;6.18;;;;;;;20.16;88.73;102001.75;2120118;27;20032;-78
2023/09/07 00:26:42;;;;;;;12.35;6.40;;;;;;;20.16;89.02;101999.03;2123594;27;20024;-77
2023/09/07 00:27:47;;;;;;;11.35;6.13;;;;;;;20.14;89.20;102006.72;2123877;27;20130;-77
2023/09/07 00:28:48;;;;;;;9.60;6.15;;;;;;;20.13;89.42;101996.91;2115409;27;20030;-76
2023/09/07 00:29:53;;;;;;;9.60;6.00;;;;;;;20.13;89.44;101997.72;2123857;27;20846;-77
2023/09/07 00:30:54;;;;;;;8.65;5.57;;;;;;;20.12;89.44;101993.38;2140673;27;20086;-77
2023/09/07 00:31:59;;;;;;;8.13;5.75;;;;;;;20.14;89.43;101993.88;2131807;27;20057;-77
2023/09/07 00:33:00;;;;;;;9.57;6.20;;;;;;;20.13;89.55;101994.97;2106428;27;20035;-77
2023/09/07 00:34:02;;;;;;;10.15;6.40;;;;;;;20.14;89.64;101996.63;2123837;27;20024;-76
2023/09/07 00:35:06;;;;;;;8.88;6.63;;;;;;;20.14;89.50;101993.88;2131922;27;20041;-77
2023/09/07 00:36:08;;;;;;;11.18;6.82;;;;;;;20.13;89.68;101994.19;2132441;27;20025;-76
2023/09/07 00:37:13;;;;;;;9.48;6.45;;;;;;;20.12;89.61;101998.84;2132049;27;20050;-76
2023/09/07 00:38:18;;;;;;;9.13;6.70;;;;;;;20.11;90.01;101999.13;2132626;27;20038;-77
2023/09/07 00:39:21;;;;;;;10.50;6.68;;;;;;;20.09;90.09;101999.44;2132061;27;20035;-76
2023/09/07 00:40:26;;;;;;;11.90;6.13;;;;;;;20.10;90.26;102003.00;2132533;27;20046;-77
2023/09/07 00:41:31;;;;;;;8.63;6.55;;;;;;;20.08;90.20;102003.31;2124256;27;20028;-77
2023/09/07 00:42:37;;;;;;;10.50;6.38;;;;;;;20.07;90.19;101993.47;2132933;27;20030;-77
2023/09/07 00:43:42;;;;;;;14.40;7.40;;;;;;;20.08;90.58;101997.84;2140840;27;20034;-77
2023/09/07 00:44:44;;;;;;;13.85;7.38;;;;;;;20.07;90.72;101996.22;2123887;27;20042;-76
2023/09/07 00:45:46;;;;;;;10.38;7.03;;;;;;;20.05;90.92;102003.09;2115245;27;20032;-76
2023/09/07 00:46:49;;;;;;;10.45;7.15;;;;;;;20.03;91.14;101995.22;2123858;27;20105;-77
2023/09/07 00:47:53;;;;;;;10.05;6.97;;;;;;;20.01;91.25;101997.44;2132161;27;20028;-76
2023/09/07 00:48:55;;;;;;;11.45;6.70;;;;;;;19.98;91.33;102006.25;2132250;27;20096;-76
2023/09/07 00:49:58;;;;;;;12.07;7.13;;;;;;;19.97;91.45;102001.91;2123366;27;20145;-76
2023/09/07 00:51:02;;;;;;;11.63;7.03;;;;;;;19.93;91.48;101991.94;2124549;27;20023;-76
2023/09/07 00:52:05;;;;;;;10.50;7.28;;;;;;;19.90;91.51;101996.06;2117553;27;20119;-76
2023/09/07 00:53:07;;;;;;;10.85;7.10;;;;;;;19.90;91.50;102007.78;2108115;27;20029;-76
2023/09/07 00:54:12;;;;;;;9.93;7.50;;;;;;;19.90;91.31;101996.88;2124712;27;20016;-76
2023/09/07 00:55:19;;;;;;;10.88;7.28;;;;;;;19.90;91.38;102001.53;2124817;27;20915;-77
2023/09/07 00:56:22;;;;;;;10.45;6.95;;;;;;;19.93;91.46;101995.47;2108672;28;20032;-76
2023/09/07 00:57:24;;;;;;;10.23;7.25;;;;;;;19.94;91.10;101994.34;2099549;28;20151;-77
2023/09/07 00:58:26;;;;;;;10.50;7.20;;;;;;;19.94;91.25;101988.88;2108594;27;20040;-76
2023/09/07 00:59:28;;;;;;;9.68;6.15;;;;;;;19.94;91.15;102002.53;2116089;27;20067;-77
2023/09/07 01:00:29;;;;;;;10.77;6.65;;;;;;;19.96;91.10;101997.56;2107690;28;20035;-77
2023/09/07 01:01:32;;;;;;;10.10;6.82;;;;;;;19.96;91.27;102000.31;2099298;28;20064;-77
2023/09/07 01:02:36;;;;;;;11.30;6.70;;;;;;;19.97;91.11;102001.09;2117043;27;20870;-76
2023/09/07 01:03:38;;;;;;;15.05;7.13;;;;;;;19.95;91.15;102001.41;2108041;28;20870;-77
2023/09/07 01:04:42;;;;;;;13.32;7.60;;;;;;;19.94;91.31;101997.06;2099599;28;20085;-76
2023/09/07 01:05:58;;;;;;;12.85;6.85;;;;;;;19.95;91.35;102006.84;2110302;27;20028;-76
2023/09/07 01:07:11;;;;;;;9.50;6.75;;;;;;;19.94;91.42;101997.06;2124673;27;20863;-77
2023/09/07 01:08:26;;;;;;;11.63;7.13;;;;;;;19.93;91.37;102011.84;2118655;27;20040;-77
2023/09/07 01:09:30;;;;;;;12.23;7.32;;;;;;;19.95;91.31;102006.06;2118199;27;20032;-77
2023/09/07 01:10:32;;;;;;;10.82;7.30;;;;;;;19.92;91.62;102012.94;2117155;27;20138;-76
2023/09/07 01:11:39;;;;;;;11.50;7.05;;;;;;;19.91;91.72;102008.59;2115991;27;20139;-76
2023/09/07 01:12:43;;;;;;;9.95;6.28;;;;;;;19.91;91.48;102014.84;2110482;27;20085;-76
2023/09/07 01:13:45;;;;;;;14.73;7.35;;;;;;;19.92;91.64;102015.66;2107920;27;20053;-76
2023/09/07 01:14:47;;;;;;;12.70;7.15;;;;;;;19.91;91.55;102014.06;2116610;27;20036;-76
2023/09/07 01:15:52;;;;;;;11.40;7.00;;;;;;;19.89;91.47;102005.34;2125451;27;20027;-76
2023/09/07 01:16:57;;;;;;;13.43;6.68;;;;;;;19.91;91.43;102011.31;2107753;28;20852;-76
2023/09/07 01:18:01;;;;;;;9.85;7.40;;;;;;;19.91;91.27;102016.78;2100955;28;20040;-77
2023/09/07 01:19:24;;;;;;;11.43;7.30;;;;;;;19.89;91.48;102011.66;2109300;27;20028;-75
2023/09/07 01:20:30;;;;;;;14.52;7.10;;;;;;;19.87;91.71;102008.41;2126272;27;20040;-76
2023/09/07 01:21:39;;;;;;;11.23;6.88;;;;;;;19.85;91.87;102010.63;2108265;28;20146;-76
2023/09/07 01:22:41;;;;;;;10.90;6.50;;;;;;;19.86;92.00;102005.97;2103169;27;20033;-76
2023/09/07 01:23:44;;;;;;;12.40;6.95;;;;;;;19.86;91.94;102012.25;2105381;27;20031;-75
2023/09/07 01:24:46;;;;;;;11.48;7.18;;;;;;;19.87;91.83;102010.31;2116769;27;20295;-75
2023/09/07 01:25:51;;;;;;;15.13;7.63;;;;;;;19.88;91.83;102009.19;2116219;27;20129;-75
2023/09/07 01:26:53;;;;;;;11.57;7.28;;;;;;;19.86;91.72;102004.06;2125810;27;20116;-75
2023/09/07 01:27:55;;;;;;;11.77;6.60;;;;;;;19.87;91.71;102002.13;2124464;27;20312;-75
2023/09/07 01:29:02;;;;;;;10.88;6.80;;;;;;;19.88;91.88;102007.28;2117500;27;20081;-76
2023/09/07 01:30:09;;;;;;;10.90;6.82;;;;;;;19.89;91.85;102008.91;2125836;27;20786;-76
2023/09/07 01:31:10;;;;;;;11.73;6.60;;;;;;;19.90;91.85;102001.53;2117707;27;20067;-77
2023/09/07 01:32:13;;;;;;;9.30;6.88;;;;;;;19.90;91.95;102002.34;2125031;27;20023;-77
2023/09/07 01:33:15;;;;;;;12.35;6.95;;;;;;;19.91;91.92;102003.13;2116189;27;20036;-76
2023/09/07 01:34:17;;;;;;;11.73;7.22;;;;;;;19.91;92.08;102009.41;2116334;27;20157;-77
2023/09/07 01:35:22;;;;;;;12.88;7.28;;;;;;;19.91;92.15;102008.59;2116429;27;20904;-77
2023/09/07 01:36:24;;;;;;;9.93;6.72;;;;;;;19.90;92.22;102012.44;2125770;27;20031;-76
2023/09/07 01:37:28;;;;;;;10.77;6.50;;;;;;;19.90;92.27;102007.00;2125184;27;20023;-77
2023/09/07 01:38:35;;;;;;;10.98;6.43;;;;;;;19.90;92.24;102009.72;2125889;27;20047;-77
2023/09/07 01:39:39;;;;;;;11.02;7.38;;;;;;;19.90;92.16;102009.72;2124934;27;20039;-77
2023/09/07 01:40:41;;;;;;;11.93;7.03;;;;;;;19.92;92.46;102007.47;2116289;27;20851;-77
2023/09/07 01:41:42;;;;;;;12.15;6.70;;;;;;;19.91;92.29;102014.06;2124766;27;20153;-76
2023/09/07 01:42:44;;;;;;;13.23;7.90;;;;;;;19.86;92.53;102012.25;2124176;27;20055;-77
2023/09/07 01:43:45;;;;;;;12.15;7.38;;;;;;;19.87;92.91;102013.84;2116282;27;20039;-77
2023/09/07 01:44:48;;;;;;;11.18;7.43;;;;;;;19.84;93.26;102014.47;2124515;27;20972;-76
2023/09/07 01:45:49;;;;;;;11.23;7.53;;;;;;;19.83;93.16;102017.50;2124650;27;20087;-75
2023/09/07 01:46:55;;;;;;;11.90;7.55;;;;;;;19.79;93.58;102005.56;2125304;27;20024;-77
2023/09/07 01:48:01;;;;;;;11.93;8.30;;;;;;;19.75;93.80;102012.78;2125135;27;20039;-76
2023/09/07 01:49:04;;;;;;;13.48;7.80;;;;;;;19.76;94.03;102014.38;2126324;27;20070;-76
2023/09/07 01:50:14;;;;;;;10.80;7.80;;;;;;;19.77;93.89;102018.75;2125432;27;20773;-76
2023/09/07 01:51:15;;;;;;;14.40;7.40;;;;;;;19.77;93.84;102016.81;2117502;27;20806;-76
2023/09/07 01:52:21;;;;;;;12.30;7.88;;;;;;;19.74;93.94;102003.78;2119717;27;20024;-77
2023/09/07 01:53:23;;;;;;;12.20;8.15;;;;;;;19.72;93.88;102016.91;2115823;27;20032;-76
2023/09/07 01:54:26;;;;;;;14.27;7.72;;;;;;;19.72;93.70;102016.09;2108012;27;20859;-76
2023/09/07 01:55:31;;;;;;;13.38;7.60;;;;;;;19.70;93.67;102018.31;2107498;28;20033;-76
2023/09/07 01:56:35;;;;;;;12.32;7.07;;;;;;;19.70;93.62;102013.66;2117769;27;20886;-77
2023/09/07 01:57:39;;;;;;;16.23;8.15;;;;;;;19.66;93.62;102015.41;2115679;28;20767;-76
2023/09/07 01:58:41;;;;;;;13.13;8.02;;;;;;;19.65;93.58;102020.06;2099542;28;20147;-76
2023/09/07 01:59:45;;;;;;;10.45;7.40;;;;;;;19.64;93.49;102014.88;2099229;28;20876;-76
2023/09/07 02:00:50;;;;;;;16.58;7.20;;;;;;;19.67;93.38;102019.72;2100051;28;20068;-75
2023/09/07 02:01:55;;;;;;;10.80;7.88;;;;;;;19.68;93.23;102018.63;2109172;27;20084;-75
2023/09/07 02:02:56;;;;;;;10.40;6.90;;;;;;;19.68;93.18;102016.72;2107828;28;20128;-76
2023/09/07 02:03:58;;;;;;;11.70;7.38;;;;;;;19.69;93.12;102014.78;2107700;27;20028;-74
2023/09/07 02:05:04;;;;;;;15.40;7.13;;;;;;;19.71;92.93;102019.97;2107891;28;20028;-74
2023/09/07 02:06:07;;;;;;;10.57;7.43;;;;;;;19.70;93.09;102019.13;2107886;27;20043;-74
2023/09/07 02:07:10;;;;;;;14.65;7.68;;;;;;;19.70;93.02;102024.59;2107838;28;20098;-74
2023/09/07 02:08:15;;;;;;;12.45;7.38;;;;;;;19.70;92.87;102018.31;2099198;28;20847;-74
2023/09/07 02:09:17;;;;;;;10.30;7.28;;;;;;;19.71;92.86;102012.56;2092400;28;20077;-74
2023/09/07 02:10:23;;;;;;;14.95;7.18;;;;;;;19.70;93.13;102021.06;2099657;28;20040;-74
2023/09/07 02:11:25;;;;;;;11.43;7.43;;;;;;;19.68;93.11;102016.72;2099780;28;20020;-73
2023/09/07 02:12:27;;;;;;;10.93;7.22;;;;;;;19.67;93.03;102015.09;2099322;28;20084;-74
2023/09/07 02:13:31;;;;;;;12.90;7.40;;;;;;;19.67;93.08;102026.03;2115789;27;20052;-74
2023/09/07 02:14:35;;;;;;;12.65;6.90;;;;;;;19.66;93.22;102021.66;2107433;28;20047;-74
2023/09/07 02:15:43;;;;;;;11.18;6.78;;;;;;;19.67;93.00;102023.28;2092870;28;20037;-74
2023/09/07 02:16:45;;;;;;;11.02;7.07;;;;;;;19.68;93.06;102024.09;2091720;28;20041;-74
2023/09/07 02:17:46;;;;;;;10.95;6.72;;;;;;;19.68;92.93;102022.16;2090796;28;20030;-74
2023/09/07 02:18:50;;;;;;;12.77;6.35;;;;;;;19.67;93.02;102026.03;2091523;28;20075;-72
2023/09/07 02:19:52;;;;;;;15.05;6.63;;;;;;;19.67;92.96;102023.28;2098908;28;20021;-75
2023/09/07 02:20:54;;;;;;;10.43;6.40;;;;;;;19.68;92.84;102026.81;2090483;28;20140;-75
2023/09/07 02:21:59;;;;;;;9.18;6.10;;;;;;;19.67;92.94;102030.66;2092259;28;20765;-75
2023/09/07 02:23:06;;;;;;;8.88;6.28;;;;;;;19.66;93.12;102026.31;2107985;28;20033;-75
2023/09/07 02:24:08;;;;;;;9.77;6.50;;;;;;;19.66;93.03;102020.84;2108343;27;20179;-75
2023/09/07 02:25:11;;;;;;;11.30;6.57;;;;;;;19.66;92.79;102018.94;2107250;28;20129;-76
2023/09/07 02:26:13;;;;;;;13.15;6.80;;;;;;;19.68;92.74;102027.63;2099101;28;20108;-76
2023/09/07 02:27:14;;;;;;;10.80;6.35;;;;;;;19.68;92.61;102026.81;2107528;27;20093;-76
2023/09/07 02:28:16;;;;;;;12.40;6.20;;;;;;;19.67;92.64;102028.75;2107336;28;20126;-75
2023/09/07 02:29:20;;;;;;;10.18;6.57;;;;;;;19.68;92.74;102030.34;2099808;27;20048;-75
2023/09/07 02:30:21;;;;;;;7.90;5.60;;;;;;;19.68;92.57;102030.34;2115960;27;21002;-77
2023/09/07 02:31:23;;;;;;;9.00;5.38;;;;;;;19.69;92.63;102025.69;2107378;28;20042;-77
2023/09/07 02:32:28;;;;;;;10.68;5.85;;;;;;;19.71;92.37;102019.97;2108488;27;20942;-77
2023/09/07 02:33:33;;;;;;;10.18;5.70;;;;;;;19.73;92.50;102034.09;2124088;27;20024;-76
2023/09/07 02:34:36;;;;;;;12.30;6.18;;;;;;;19.74;92.37;102030.25;2115645;28;20033;-76
2023/09/07 02:35:41;;;;;;;10.07;5.50;;;;;;;19.74;92.25;102036.53;2099476;28;20842;-77
2023/09/07 02:36:48;;;;;;;14.75;6.43;;;;;;;19.73;92.08;102028.63;2109322;27;20131;-77
2023/09/07 02:37:49;;;;;;;9.43;6.13;;;;;;;19.72;92.27;102038.75;2116174;27;20028;-77
2023/09/07 02:38:52;;;;;;;11.52;6.30;;;;;;;19.68;92.18;102033.09;2107236;28;20040;-80
2023/09/07 02:39:54;;;;;;;12.00;7.00;;;;;;;19.66;92.13;102029.84;2107450;28;20094;-77
2023/09/07 02:40:55;;;;;;;10.52;6.75;;;;;;;19.64;92.19;102029.34;2098824;28;20930;-77
2023/09/07 02:42:02;;;;;;;13.40;5.80;;;;;;;19.61;92.12;102021.75;2109544;27;20136;-77
2023/09/07 02:43:04;;;;;;;12.60;6.30;;;;;;;19.60;92.40;102028.28;2124133;27;20030;-77
2023/09/07 02:44:07;;;;;;;7.97;5.53;;;;;;;19.59;92.05;102029.41;2107490;28;20136;-76
2023/09/07 02:45:10;;;;;;;11.95;6.15;;;;;;;19.54;92.21;102025.97;2099158;28;20052;-77
2023/09/07 02:46:14;;;;;;;15.05;6.45;;;;;;;19.52;92.15;102020.84;2108840;27;20032;-76
2023/09/07 02:47:19;;;;;;;12.27;6.00;;;;;;;19.51;91.98;102032.84;2106811;28;20040;-76
2023/09/07 02:48:21;;;;;;;13.18;6.60;;;;;;;19.51;92.19;102021.13;2099763;28;20084;-76
2023/09/07 02:49:23;;;;;;;9.32;6.22;;;;;;;19.50;91.81;102024.97;2090765;28;20072;-79
2023/09/07 02:50:27;;;;;;;9.18;5.70;;;;;;;19.47;91.92;102026.38;2090498;28;20041;-76
2023/09/07 02:51:32;;;;;;;10.68;6.20;;;;;;;19.49;91.87;102017.91;2100057;27;20041;-77
2023/09/07 02:52:34;;;;;;;9.70;6.25;;;;;;;19.47;91.97;102020.94;2100458;28;20048;-77
2023/09/07 02:53:38;;;;;;;8.35;5.80;;;;;;;19.45;91.75;102023.97;2082744;28;20046;-76
2023/09/07 02:54:41;;;;;;;10.50;6.20;;;;;;;19.43;91.93;102019.94;2091218;28;20095;-76
2023/09/07 02:55:43;;;;;;;13.07;6.40;;;;;;;19.44;91.76;102016.06;2099080;28;20068;-76
2023/09/07 02:56:49;;;;;;;8.60;5.25;;;;;;;19.40;91.80;102017.81;2099207;28;20037;-76
2023/09/07 02:57:55;;;;;;;7.53;4.85;;;;;;;19.43;91.63;102026.19;2091465;28;20029;-76
2023/09/07 02:58:57;;;;;;;8.05;5.53;;;;;;;19.45;91.63;102023.13;2099790;28;20033;-76
2023/09/07 02:59:59;;;;;;;7.50;4.70;;;;;;;19.46;91.62;102024.78;2098804;28;20767;-77
2023/09/07 03:01:05;;;;;;;7.68;5.15;;;;;;;19.46;91.51;102016.59;2090648;28;20124;-76
2023/09/07 03:02:07;;;;;;;11.55;5.10;;;;;;;19.45;91.45;102020.41;2091740;28;20095;-76
2023/09/07 03:03:12;;;;;;;9.57;5.35;;;;;;;19.45;91.40;102023.13;2107455;28;20965;-76
2023/09/07 03:04:14;;;;;;;8.70;5.15;;;;;;;19.45;91.38;102023.13;2106919;28;20029;-76
2023/09/07 03:05:18;;;;;;;9.20;5.05;;;;;;;19.44;91.29;102021.53;2098979;28;20133;-76
2023/09/07 03:06:21;;;;;;;12.23;5.05;;;;;;;19.44;91.54;102010.63;2098832;28;20859;-76
2023/09/07 03:07:28;;;;;;;9.80;5.22;;;;;;;19.44;91.27;102016.88;2091591;28;20996;-76
2023/09/07 03:08:32;;;;;;;7.95;5.03;;;;;;;19.45;91.30;102013.06;2102924;28;20029;-76
2023/09/07 03:09:35;;;;;;;10.13;5.25;;;;;;;19.44;91.44;102016.06;2107242;28;20075;-76
2023/09/07 03:10:39;;;;;;;8.75;5.20;;;;;;;19.43;91.28;102009.81;2098626;28;20041;-76
2023/09/07 03:11:46;;;;;;;13.77;5.35;;;;;;;19.43;91.31;102011.75;2093048;28;20037;-76
2023/09/07 03:12:48;;;;;;;6.97;4.50;;;;;;;19.42;91.20;102019.13;2099545;28;20119;-76
2023/09/07 03:13:52;;;;;;;10.45;5.18;;;;;;;19.43;91.03;102020.72;2099268;28;20040;-76
2023/09/07 03:14:57;;;;;;;7.82;4.93;;;;;;;19.44;91.07;102016.06;2107702;27;20024;-76
2023/09/07 03:16:00;;;;;;;11.00;5.05;;;;;;;19.43;91.06;102028.09;2115752;27;20154;-75
2023/09/07 03:17:03;;;;;;;9.90;4.60;;;;;;;19.43;90.90;102025.38;2114482;27;20032;-76
2023/09/07 03:18:10;;;;;;;9.30;4.78;;;;;;;19.39;90.97;102024.38;2108699;27;20040;-76
2023/09/07 03:19:13;;;;;;;7.88;4.70;;;;;;;19.43;90.80;102030.84;2107417;28;20763;-77
2023/09/07 03:20:16;;;;;;;6.22;4.57;;;;;;;19.42;90.84;102026.50;2098737;28;20961;-76
2023/09/07 03:21:25;;;;;;;7.72;4.90;;;;;;;19.41;91.09;102022.94;2099764;28;20048;-77
2023/09/07 03:22:29;;;;;;;14.98;5.20;;;;;;;19.39;91.14;102016.19;2107392;28;20028;-77
2023/09/07 03:23:33;;;;;;;7.40;4.60;;;;;;;19.37;91.39;102019.22;2104269;27;20123;-77
2023/09/07 03:24:38;;;;;;;11.82;5.75;;;;;;;19.37;91.29;102018.41;2099626;28;20018;-77
2023/09/07 03:25:44;;;;;;;10.30;5.10;;;;;;;19.36;91.34;102031.25;2100104;27;20033;-77
2023/09/07 03:26:46;;;;;;;11.10;5.40;;;;;;;19.33;91.50;102026.38;2116097;27;20098;-76
2023/09/07 03:27:50;;;;;;;6.63;4.80;;;;;;;19.33;91.41;102023.66;2115171;27;20035;-76
2023/09/07 03:28:57;;;;;;;8.57;4.55;;;;;;;19.34;91.46;102028.00;2108458;27;20021;-76
2023/09/07 03:29:59;;;;;;;7.90;4.50;;;;;;;19.35;91.30;102028.81;2107089;28;20114;-76
2023/09/07 03:31:01;;;;;;;7.97;4.55;;;;;;;19.34;91.50;102029.91;2107587;27;20748;-76
2023/09/07 03:32:08;;;;;;;9.98;4.70;;;;;;;19.33;91.52;102029.13;2115151;27;20118;-76
2023/09/07 03:33:10;;;;;;;7.25;4.65;;;;;;;19.31;91.61;102031.31;2117045;27;20039;-76
2023/09/07 03:34:13;;;;;;;10.27;4.80;;;;;;;19.34;91.50;102029.91;2123824;27;21247;-76
2023/09/07 03:35:15;;;;;;;8.98;4.53;;;;;;;19.33;91.56;102031.03;2106818;28;20083;-76
2023/09/07 03:36:18;;;;;;;9.45;4.90;;;;;;;19.32;91.55;102021.22;2098996;27;20905;-76
2023/09/07 03:37:22;;;;;;;7.55;4.70;;;;;;;19.31;91.58;102033.25;2115363;27;20828;-76
2023/09/07 03:38:24;;;;;;;6.97;4.47;;;;;;;19.30;91.61;102031.66;2106884;27;20040;-76
2023/09/07 03:39:30;;;;;;;9.43;4.60;;;;;;;19.29;91.49;102032.72;2116690;27;20031;-75
2023/09/07 03:40:32;;;;;;;7.95;4.13;;;;;;;19.29;91.46;102028.09;2123238;27;20027;-76
2023/09/07 03:41:35;;;;;;;7.35;4.10;;;;;;;19.29;91.33;102030.81;2106919;27;20543;-76
2023/09/07 03:42:40;;;;;;;9.48;4.88;;;;;;;19.29;91.44;102032.72;2115849;27;20032;-76
2023/09/07 03:43:45;;;;;;;9.23;4.30;;;;;;;19.26;91.57;102027.88;2124410;27;20122;-76
2023/09/07 03:44:49;;;;;;;7.53;4.40;;;;;;;19.25;91.63;102029.00;2115933;27;20035;-76
2023/09/07 03:45:51;;;;;;;8.85;4.10;;;;;;;19.26;91.59;102030.59;2115479;27;20109;-76
2023/09/07 03:46:55;;;;;;;6.75;4.10;;;;;;;19.26;91.44;102028.69;2107437;27;20025;-76
2023/09/07 03:47:57;;;;;;;6.03;3.85;;;;;;;19.26;91.63;102025.16;2106662;27;20021;-74
2023/09/07 03:49:00;;;;;;;11.45;4.13;;;;;;;19.27;91.54;102026.78;2115461;27;20901;-76
2023/09/07 03:50:03;;;;;;;7.70;4.25;;;;;;;19.27;91.59;102026.78;2107067;27;20024;-76
2023/09/07 03:51:09;;;;;;;7.75;4.03;;;;;;;19.28;91.54;102028.41;2117050;27;20023;-77
2023/09/07 03:52:13;;;;;;;6.47;4.10;;;;;;;19.29;91.44;102036.25;2103154;28;20135;-76
2023/09/07 03:53:20;;;;;;;7.28;4.00;;;;;;;19.31;91.34;102027.78;2100710;27;20163;-76
2023/09/07 03:54:23;;;;;;;8.18;3.83;;;;;;;19.31;91.31;102025.88;2098621;28;20120;-76
2023/09/07 03:55:24;;;;;;;14.18;4.80;;;;;;;19.31;91.02;102028.59;2099157;27;20037;-76
2023/09/07 03:56:26;;;;;;;7.13;4.45;;;;;;;19.31;91.25;102027.78;2106538;28;20068;-76
2023/09/07 03:57:27;;;;;;;6.47;4.10;;;;;;;19.31;91.35;102023.16;2106709;27;20040;-77
2023/09/07 03:58:32;;;;;;;7.80;4.53;;;;;;;19.31;91.13;102023.16;2107145;28;20028;-77
2023/09/07 03:59:34;;;;;;;7.07;4.50;;;;;;;19.31;91.33;102030.53;2090216;28;20965;-77
2023/09/07 04:00:40;;;;;;;7.30;4.38;;;;;;;19.31;91.33;102016.88;2082229;28;20034;-78
2023/09/07 04:01:43;;;;;;;5.90;4.20;;;;;;;19.31;91.21;102027.78;2091886;28;20046;-77
2023/09/07 04:02:46;;;;;;;9.90;4.07;;;;;;;19.32;91.12;102023.94;2098360;28;20864;-77
2023/09/07 04:03:52;;;;;;;8.55;3.95;;;;;;;19.33;91.05;102031.03;2100151;28;20025;-78
2023/09/07 04:04:56;;;;;;;9.50;4.43;;;;;;;19.33;91.09;102028.31;2107606;28;20038;-77
2023/09/07 04:06:00;;;;;;;9.93;4.40;;;;;;;19.33;91.24;102034.56;2099311;28;20131;-77
2023/09/07 04:07:01;;;;;;;7.00;4.70;;;;;;;19.31;91.20;102033.25;2089711;28;20131;-77
2023/09/07 04:08:04;;;;;;;8.27;4.13;;;;;;;19.30;91.31;102032.44;2098896;27;20095;-79
2023/09/07 04:09:07;;;;;;;8.73;4.38;;;;;;;19.31;91.44;102038.69;2114993;27;20906;-78
2023/09/07 04:10:09;;;;;;;9.82;4.50;;;;;;;19.29;91.42;102036.25;2115362;27;20036;-77
2023/09/07 04:11:12;;;;;;;7.45;4.63;;;;;;;19.29;91.70;102035.47;2115292;27;20893;-77
2023/09/07 04:12:14;;;;;;;9.48;4.68;;;;;;;19.29;91.72;102040.91;2106332;27;20037;-77
2023/09/07 04:13:17;;;;;;;8.48;4.75;;;;;;;19.29;91.59;102038.19;2115720;27;20028;-77
2023/09/07 04:14:19;;;;;;;9.27;3.85;;;;;;;19.28;91.73;102042.03;2115008;27;20020;-77
2023/09/07 04:15:21;;;;;;;6.05;4.20;;;;;;;19.29;91.61;102040.91;2115208;27;20908;-77
2023/09/07 04:16:25;;;;;;;8.35;4.20;;;;;;;19.31;91.58;102035.97;2115296;27;20031;-77
2023/09/07 04:17:28;;;;;;;9.27;4.10;;;;;;;19.32;91.50;102041.13;2106942;27;20028;-78
2023/09/07 04:18:35;;;;;;;7.95;4.28;;;;;;;19.33;91.46;102031.84;2115625;27;20036;-77
2023/09/07 04:19:39;;;;;;;9.90;5.43;;;;;;;19.34;91.36;102043.56;2116921;27;20651;-76
2023/09/07 04:20:41;;;;;;;8.63;4.43;;;;;;;19.31;91.44;102042.22;2114973;27;20928;-74
2023/09/07 04:21:43;;;;;;;10.50;4.57;;;;;;;19.30;91.58;102037.91;2106601;28;20928;-75
2023/09/07 04:22:44;;;;;;;9.80;5.10;;;;;;;19.30;91.54;102043.34;2106611;27;20083;-75
2023/09/07 04:23:46;;;;;;;9.02;5.00;;;;;;;19.27;91.62;102035.78;2115139;27;20024;-78
2023/09/07 04:24:51;;;;;;;9.10;4.93;;;;;;;19.25;91.61;102034.44;2123666;27;20134;-78
2023/09/07 04:25:55;;;;;;;8.70;4.47;;;;;;;19.21;91.74;102031.53;2115279;27;20252;-74
2023/09/07 04:27:00;;;;;;;8.20;4.65;;;;;;;19.19;91.72;102039.19;2114840;27;20813;-75
2023/09/07 04:28:04;;;;;;;9.00;4.40;;;;;;;19.17;91.72;102033.25;2115420;27;20043;-72
2023/09/07 04:29:11;;;;;;;8.45;4.50;;;;;;;19.18;91.83;102043.84;2107497;27;20031;-75
2023/09/07 04:30:13;;;;;;;8.60;4.53;;;;;;;19.17;91.94;102038.69;2116849;27;20032;-74
2023/09/07 04:31:15;;;;;;;8.73;5.03;;;;;;;19.14;91.88;102036.56;2123677;27;20867;-74
2023/09/07 04:32:17;;;;;;;13.77;5.32;;;;;;;19.12;91.90;102042.31;2097961;28;20029;-74
2023/09/07 04:33:19;;;;;;;7.85;5.10;;;;;;;19.11;92.03;102040.69;2098430;27;20025;-73
2023/09/07 04:34:23;;;;;;;9.02;5.00;;;;;;;19.12;91.89;102044.22;2106821;27;20061;-74
2023/09/07 04:35:32;;;;;;;11.57;5.43;;;;;;;19.14;91.83;102044.75;2116366;27;20198;-73
2023/09/07 04:36:41;;;;;;;7.78;5.05;;;;;;;19.15;91.92;102052.63;2115888;27;20891;-74
2023/09/07 04:37:45;;;;;;;9.77;5.00;;;;;;;19.15;91.70;102049.88;2107300;28;20330;-74
2023/09/07 04:38:46;;;;;;;8.02;4.88;;;;;;;19.14;91.75;102048.28;2115817;27;20081;-74
2023/09/07 04:39:53;;;;;;;12.63;5.10;;;;;;;19.14;91.70;102055.66;2106834;28;20028;-74
2023/09/07 04:41:06;;;;;;;6.82;4.32;;;;;;;19.13;91.83;102043.09;2101075;27;20029;-74
2023/09/07 04:42:08;;;;;;;7.60;4.90;;;;;;;19.13;91.68;102054.81;2124415;27;20872;-74
2023/09/07 04:43:11;;;;;;;9.60;4.68;;;;;;;19.11;91.74;102051.59;2114703;27;20099;-74
2023/09/07 04:44:12;;;;;;;7.63;4.32;;;;;;;19.12;91.77;102057.84;2106586;27;20047;-73
2023/09/07 04:45:14;;;;;;;10.55;4.90;;;;;;;19.10;91.77;102049.16;2114849;27;20040;-74
2023/09/07 04:46:22;;;;;;;10.18;4.95;;;;;;;19.06;91.78;102051.69;2123919;27;20916;-74
2023/09/07 04:47:27;;;;;;;11.23;4.82;;;;;;;19.06;91.81;102051.69;2122978;27;20043;-71
2023/09/07 04:48:28;;;;;;;8.05;4.88;;;;;;;19.06;91.96;102048.97;2115175;27;20059;-74
2023/09/07 04:49:30;;;;;;;7.57;4.55;;;;;;;19.05;92.03;102047.34;2114936;27;20082;-74
2023/09/07 04:50:34;;;;;;;6.85;4.40;;;;;;;19.04;92.37;102051.19;2122670;27;20020;-73
2023/09/07 04:51:39;;;;;;;8.07;4.90;;;;;;;19.04;92.24;102053.91;2113985;27;20030;-74
2023/09/07 04:52:42;;;;;;;8.27;4.70;;;;;;;19.05;92.44;102055.53;2097924;28;20943;-74
2023/09/07 04:53:44;;;;;;;6.90;4.22;;;;;;;19.06;92.42;102053.59;2105328;28;20047;-73
2023/09/07 04:54:51;;;;;;;9.93;4.40;;;;;;;19.06;92.29;102054.41;2097582;28;20029;-74